Time;durP1;ratioP1;P1;durP2;ratioP2;P2;SDS_P1;SDS_P2;PMS_P1;PMS_P2;Temp;Humidity;BMP_temperature;BMP_pressure;BME280_temperature;BME280_humidity;BME280_pressure;Samples;Min_cycle;Max_cycle;Signal;HPM_P1;HPM_P2
2022/11/22 00:01:04;;;;;;;14.60;8.48;;;;;;;;;;2082897;28;20090;-82
2022/11/22 00:02:23;;;;;;;11.15;7.80;;;;;;;;;;2081047;28;20102;-82
2022/11/22 00:03:43;;;;;;;9.43;7.30;;;;;;;;;;2080580;28;20033;-81
2022/11/22 00:05:02;;;;;;;11.57;7.50;;;;;;;;;;2077093;28;20104;-83
2022/11/22 00:06:21;;;;;;;13.07;7.85;;;;;;;;;;2081745;28;20033;-83
2022/11/22 00:07:40;;;;;;;9.93;7.55;;;;;;;;;;2082587;28;20021;-81
2022/11/22 00:08:59;;;;;;;9.20;7.88;;;;;;;;;;2082226;28;20041;-83
2022/11/22 00:10:19;;;;;;;10.50;7.30;;;;;;;;;;2087876;28;20045;-80
2022/11/22 00:11:38;;;;;;;12.32;7.82;;;;;;;;;;2080031;28;20507;-78
2022/11/22 00:13:00;;;;;;;11.18;7.50;;;;;;;;;;2084952;28;20045;-78
2022/11/22 00:14:19;;;;;;;11.82;7.45;;;;;;;;;;2089285;28;20140;-78
2022/11/22 00:15:38;;;;;;;12.25;7.95;;;;;;;;;;2078596;28;20038;-78
2022/11/22 00:16:57;;;;;;;9.27;7.30;;;;;;;;;;2077916;28;20026;-78
2022/11/22 00:18:16;;;;;;;9.63;7.00;;;;;;;;;;2080235;28;20042;-78
2022/11/22 00:19:38;;;;;;;11.43;8.10;;;;;;;;;;2074824;28;20086;-78
2022/11/22 00:21:02;;;;;;;11.07;7.53;;;;;;;;;;2077970;28;20025;-78
2022/11/22 00:22:22;;;;;;;10.90;7.35;;;;;;;;;;2073431;28;20100;-78
2022/11/22 00:23:40;;;;;;;9.55;6.38;;;;;;;;;;2075352;28;20502;-78
2022/11/22 00:24:59;;;;;;;8.93;7.07;;;;;;;;;;2077860;28;20037;-78
2022/11/22 00:26:18;;;;;;;9.18;7.70;;;;;;;;;;2076667;28;20033;-78
2022/11/22 00:27:37;;;;;;;12.73;7.95;;;;;;;;;;2084921;28;20104;-78
2022/11/22 00:28:56;;;;;;;8.93;7.40;;;;;;;;;;2080618;28;20033;-78
2022/11/22 00:30:15;;;;;;;7.15;6.45;;;;;;;;;;2083999;28;20033;-78
2022/11/22 00:31:34;;;;;;;10.43;6.75;;;;;;;;;;2088625;28;20111;-78
2022/11/22 00:32:52;;;;;;;8.68;7.55;;;;;;;;;;2089587;28;20028;-78
2022/11/22 00:34:11;;;;;;;8.90;6.78;;;;;;;;;;2079823;28;20522;-78
2022/11/22 00:35:30;;;;;;;10.63;6.75;;;;;;;;;;2085336;28;20053;-78
2022/11/22 00:36:49;;;;;;;9.93;7.65;;;;;;;;;;2089634;28;20029;-78
2022/11/22 00:38:08;;;;;;;10.70;6.85;;;;;;;;;;2079648;28;20088;-79
2022/11/22 00:39:27;;;;;;;10.80;7.10;;;;;;;;;;2075329;28;20127;-78
2022/11/22 00:40:45;;;;;;;11.93;7.45;;;;;;;;;;2072877;28;20029;-78
2022/11/22 00:42:04;;;;;;;11.82;6.75;;;;;;;;;;2075333;28;20026;-78
2022/11/22 00:43:24;;;;;;;8.93;6.47;;;;;;;;;;2077086;28;20025;-76
2022/11/22 00:44:43;;;;;;;9.30;6.75;;;;;;;;;;2086175;28;20104;-77
2022/11/22 00:46:02;;;;;;;13.00;7.10;;;;;;;;;;2079473;28;20077;-76
2022/11/22 00:47:21;;;;;;;9.73;6.57;;;;;;;;;;2080389;28;20038;-77
2022/11/22 00:48:40;;;;;;;8.88;7.10;;;;;;;;;;2080287;28;20108;-77
2022/11/22 00:49:59;;;;;;;8.00;7.07;;;;;;;;;;2075487;28;20128;-76
2022/11/22 00:51:18;;;;;;;8.25;6.60;;;;;;;;;;2077052;28;20040;-76
2022/11/22 00:52:37;;;;;;;10.32;6.82;;;;;;;;;;2077245;28;20411;-76
2022/11/22 00:53:56;;;;;;;9.85;6.95;;;;;;;;;;2074417;28;20026;-76
2022/11/22 00:55:15;;;;;;;9.35;7.13;;;;;;;;;;2085146;28;20025;-76
2022/11/22 00:56:34;;;;;;;9.50;6.55;;;;;;;;;;2078339;28;20029;-76
2022/11/22 00:57:53;;;;;;;9.48;6.72;;;;;;;;;;2084228;28;20025;-76
2022/11/22 00:59:12;;;;;;;11.85;7.05;;;;;;;;;;2079312;28;20379;-76
2022/11/22 01:00:31;;;;;;;13.90;7.00;;;;;;;;;;2084224;28;20618;-76
2022/11/22 01:01:49;;;;;;;8.88;6.90;;;;;;;;;;2087493;28;20024;-77
2022/11/22 01:03:12;;;;;;;9.07;6.80;;;;;;;;;;2087621;28;20033;-77
2022/11/22 01:04:30;;;;;;;8.23;7.35;;;;;;;;;;2087986;28;20032;-76
2022/11/22 01:05:50;;;;;;;10.70;7.47;;;;;;;;;;2085525;28;20115;-76
2022/11/22 01:07:09;;;;;;;9.52;7.03;;;;;;;;;;2079594;28;20034;-76
2022/11/22 01:08:28;;;;;;;9.63;6.97;;;;;;;;;;2084433;28;20978;-76
2022/11/22 01:09:47;;;;;;;7.35;6.65;;;;;;;;;;2084499;28;20117;-77
2022/11/22 01:11:06;;;;;;;7.85;6.35;;;;;;;;;;2079474;28;20382;-76
2022/11/22 01:12:25;;;;;;;9.32;6.55;;;;;;;;;;2076512;28;20029;-76
2022/11/22 01:13:44;;;;;;;11.15;7.22;;;;;;;;;;2084944;28;20132;-77
2022/11/22 01:15:03;;;;;;;11.40;7.43;;;;;;;;;;2087496;28;20030;-78
2022/11/22 01:16:22;;;;;;;11.60;7.82;;;;;;;;;;2087068;28;20037;-76
2022/11/22 01:17:41;;;;;;;8.05;6.53;;;;;;;;;;2087305;28;20124;-77
2022/11/22 01:19:00;;;;;;;12.80;7.53;;;;;;;;;;2089007;28;20498;-76
2022/11/22 01:20:19;;;;;;;8.80;7.10;;;;;;;;;;2076989;28;20101;-77
2022/11/22 01:21:38;;;;;;;7.95;6.82;;;;;;;;;;2082884;28;20111;-76
2022/11/22 01:22:57;;;;;;;9.13;7.00;;;;;;;;;;2087248;28;20472;-76
2022/11/22 01:24:16;;;;;;;10.23;7.00;;;;;;;;;;2077978;28;20410;-76
2022/11/22 01:25:35;;;;;;;9.93;7.10;;;;;;;;;;2084489;28;20061;-76
2022/11/22 01:26:54;;;;;;;9.82;7.43;;;;;;;;;;2080707;28;20065;-76
2022/11/22 01:28:13;;;;;;;10.93;7.60;;;;;;;;;;2084608;28;20059;-77
2022/11/22 01:29:32;;;;;;;11.02;7.45;;;;;;;;;;2078621;28;20501;-76
2022/11/22 01:30:52;;;;;;;11.48;7.97;;;;;;;;;;2075030;28;20022;-77
2022/11/22 01:32:11;;;;;;;11.48;7.72;;;;;;;;;;2075427;28;20025;-76
2022/11/22 01:33:30;;;;;;;8.95;7.13;;;;;;;;;;2083825;28;20382;-76
2022/11/22 01:34:49;;;;;;;10.27;7.63;;;;;;;;;;2088192;28;20037;-77
2022/11/22 01:36:08;;;;;;;8.38;6.97;;;;;;;;;;2079978;28;20628;-76
2022/11/22 01:37:26;;;;;;;9.68;6.78;;;;;;;;;;2078537;28;20045;-78
2022/11/22 01:38:45;;;;;;;10.10;7.55;;;;;;;;;;2078220;28;20494;-76
2022/11/22 01:40:04;;;;;;;11.55;7.75;;;;;;;;;;2077680;28;20569;-77
2022/11/22 01:41:23;;;;;;;11.68;8.02;;;;;;;;;;2075690;28;20041;-79
2022/11/22 01:42:45;;;;;;;11.60;7.93;;;;;;;;;;2076892;28;20409;-77
2022/11/22 01:44:22;;;;;;;10.23;7.32;;;;;;;;;;2085327;28;20119;-77
2022/11/22 01:45:43;;;;;;;13.35;7.88;;;;;;;;;;2081606;28;20037;-76
2022/11/22 01:47:06;;;;;;;9.55;7.05;;;;;;;;;;2074042;28;20527;-76
2022/11/22 01:48:25;;;;;;;12.90;7.95;;;;;;;;;;2088120;28;20029;-76
2022/11/22 01:49:44;;;;;;;8.70;6.57;;;;;;;;;;2087532;28;20033;-76
2022/11/22 01:51:12;;;;;;;9.38;7.68;;;;;;;;;;2081769;28;20021;-76
2022/11/22 01:52:32;;;;;;;8.50;6.72;;;;;;;;;;2079745;28;20038;-76
2022/11/22 01:53:53;;;;;;;10.32;7.72;;;;;;;;;;2087101;28;20017;-76
2022/11/22 01:55:13;;;;;;;9.32;7.68;;;;;;;;;;2090247;28;20438;-76
2022/11/22 01:56:32;;;;;;;9.13;7.47;;;;;;;;;;2089155;28;20065;-77
2022/11/22 01:57:52;;;;;;;9.90;7.75;;;;;;;;;;2090261;28;20037;-76
2022/11/22 01:59:16;;;;;;;10.02;6.72;;;;;;;;;;2080485;28;20464;-79
2022/11/22 02:00:36;;;;;;;8.32;7.22;;;;;;;;;;2085804;28;20029;-75
2022/11/22 02:01:56;;;;;;;8.27;6.75;;;;;;;;;;2089752;28;20032;-76
2022/11/22 02:03:15;;;;;;;15.40;7.38;;;;;;;;;;2084258;28;20479;-78
2022/11/22 02:04:35;;;;;;;7.95;6.95;;;;;;;;;;2081656;28;20109;-77
2022/11/22 02:05:55;;;;;;;21.05;7.78;;;;;;;;;;2086226;28;20025;-78
2022/11/22 02:07:23;;;;;;;9.18;7.22;;;;;;;;;;2089537;28;20400;-78
2022/11/22 02:08:52;;;;;;;11.75;7.60;;;;;;;;;;2090970;28;20446;-77
2022/11/22 02:10:10;;;;;;;10.65;8.30;;;;;;;;;;2090165;28;20120;-78
2022/11/22 02:11:30;;;;;;;10.65;8.35;;;;;;;;;;2084530;28;20022;-77
2022/11/22 02:12:50;;;;;;;13.15;8.30;;;;;;;;;;2087624;28;20041;-75
2022/11/22 02:14:09;;;;;;;9.50;8.30;;;;;;;;;;2090267;28;20029;-75
2022/11/22 02:15:28;;;;;;;8.05;7.10;;;;;;;;;;2079463;28;20140;-75
2022/11/22 02:16:47;;;;;;;10.70;7.40;;;;;;;;;;2085555;28;20473;-75
2022/11/22 02:18:07;;;;;;;9.50;7.20;;;;;;;;;;2080445;28;20104;-78
2022/11/22 02:19:40;;;;;;;8.60;7.70;;;;;;;;;;2087160;28;20080;-78
2022/11/22 02:21:00;;;;;;;9.57;7.38;;;;;;;;;;2081874;28;20072;-75
2022/11/22 02:22:34;;;;;;;11.63;7.22;;;;;;;;;;2078184;28;20045;-78
2022/11/22 02:24:13;;;;;;;9.90;7.30;;;;;;;;;;2087725;28;20033;-77
2022/11/22 02:25:43;;;;;;;9.30;7.63;;;;;;;;;;2081168;28;20030;-74
2022/11/22 02:27:02;;;;;;;10.25;7.80;;;;;;;;;;2086228;28;20033;-78
2022/11/22 02:28:21;;;;;;;10.55;7.47;;;;;;;;;;2088921;28;20037;-76
2022/11/22 02:29:50;;;;;;;9.80;7.55;;;;;;;;;;2088902;28;20028;-75
2022/11/22 02:31:27;;;;;;;9.52;7.45;;;;;;;;;;2086716;28;20052;-77
2022/11/22 02:32:46;;;;;;;11.13;7.50;;;;;;;;;;2089149;28;20059;-78
2022/11/22 02:34:06;;;;;;;11.02;7.60;;;;;;;;;;2084302;28;20422;-76
2022/11/22 02:35:26;;;;;;;9.82;7.40;;;;;;;;;;2080123;28;20034;-76
2022/11/22 02:36:47;;;;;;;8.00;7.07;;;;;;;;;;2086822;28;20072;-76
2022/11/22 02:38:29;;;;;;;10.32;7.55;;;;;;;;;;2089485;28;20025;-77
2022/11/22 02:39:50;;;;;;;11.93;7.55;;;;;;;;;;2076899;28;20053;-76
2022/11/22 02:41:10;;;;;;;11.18;7.30;;;;;;;;;;2075037;28;20030;-77
2022/11/22 02:42:29;;;;;;;10.45;8.48;;;;;;;;;;2086022;28;20041;-76
2022/11/22 02:43:48;;;;;;;9.25;6.97;;;;;;;;;;2080937;28;20248;-76
2022/11/22 02:45:08;;;;;;;11.38;8.32;;;;;;;;;;2086063;28;20033;-76
2022/11/22 02:46:27;;;;;;;9.60;7.05;;;;;;;;;;2081119;28;20029;-77
2022/11/22 02:47:45;;;;;;;9.35;7.78;;;;;;;;;;2086910;28;20021;-77
2022/11/22 02:49:04;;;;;;;10.23;7.32;;;;;;;;;;2088526;28;20021;-77
2022/11/22 02:50:23;;;;;;;10.85;7.15;;;;;;;;;;2090273;28;20466;-77
2022/11/22 02:51:42;;;;;;;12.68;7.63;;;;;;;;;;2088962;28;20393;-77
2022/11/22 02:53:01;;;;;;;9.13;6.95;;;;;;;;;;2081870;28;20022;-77
2022/11/22 02:54:20;;;;;;;11.05;7.85;;;;;;;;;;2076258;28;20037;-77
2022/11/22 02:55:39;;;;;;;11.68;7.75;;;;;;;;;;2084333;28;20029;-76
2022/11/22 02:56:58;;;;;;;9.32;7.32;;;;;;;;;;2086699;28;20029;-77
2022/11/22 02:58:17;;;;;;;12.55;8.27;;;;;;;;;;2078741;28;20038;-77
2022/11/22 02:59:36;;;;;;;10.50;7.53;;;;;;;;;;2069454;28;20014;-77
2022/11/22 03:00:55;;;;;;;10.90;7.53;;;;;;;;;;2072985;28;20026;-76
2022/11/22 03:02:14;;;;;;;8.55;6.88;;;;;;;;;;2078500;28;20037;-78
2022/11/22 03:03:33;;;;;;;10.27;7.25;;;;;;;;;;2083400;28;20092;-77
2022/11/22 03:04:52;;;;;;;9.23;7.25;;;;;;;;;;2075434;28;20026;-79
2022/11/22 03:06:10;;;;;;;10.23;6.88;;;;;;;;;;2073377;28;20062;-76
2022/11/22 03:07:30;;;;;;;10.38;7.50;;;;;;;;;;2085348;28;20029;-77
2022/11/22 03:08:49;;;;;;;9.43;7.68;;;;;;;;;;2081925;28;20109;-77
2022/11/22 03:10:08;;;;;;;8.40;6.97;;;;;;;;;;2073725;28;20096;-77
2022/11/22 03:11:27;;;;;;;10.48;7.80;;;;;;;;;;2087582;28;20025;-77
2022/11/22 03:12:46;;;;;;;13.07;7.40;;;;;;;;;;2088116;28;20021;-77
2022/11/22 03:14:05;;;;;;;9.27;7.50;;;;;;;;;;2082970;28;20033;-78
2022/11/22 03:15:24;;;;;;;7.68;6.47;;;;;;;;;;2073862;28;20065;-78
2022/11/22 03:16:44;;;;;;;11.65;7.28;;;;;;;;;;2068733;28;20029;-77
2022/11/22 03:18:03;;;;;;;9.18;7.20;;;;;;;;;;2076430;28;20033;-77
2022/11/22 03:19:22;;;;;;;11.15;7.70;;;;;;;;;;2082062;28;20034;-77
2022/11/22 03:20:41;;;;;;;11.20;7.65;;;;;;;;;;2081272;28;20105;-78
2022/11/22 03:22:00;;;;;;;11.00;7.38;;;;;;;;;;2082559;28;20065;-77
2022/11/22 03:23:19;;;;;;;11.15;7.95;;;;;;;;;;2085292;28;20064;-77
2022/11/22 03:24:38;;;;;;;9.93;7.05;;;;;;;;;;2088675;28;20021;-78
2022/11/22 03:25:57;;;;;;;11.48;8.13;;;;;;;;;;2080830;28;20029;-77
2022/11/22 03:27:16;;;;;;;11.70;7.75;;;;;;;;;;2078222;28;20025;-77
2022/11/22 03:28:35;;;;;;;8.20;6.65;;;;;;;;;;2084927;28;20037;-77
2022/11/22 03:29:54;;;;;;;9.93;6.97;;;;;;;;;;2081654;28;20045;-77
2022/11/22 03:31:13;;;;;;;9.05;7.40;;;;;;;;;;2084860;28;20028;-77
2022/11/22 03:32:32;;;;;;;8.15;6.85;;;;;;;;;;2090441;28;20025;-77
2022/11/22 03:33:51;;;;;;;10.10;6.30;;;;;;;;;;2090021;28;20021;-77
2022/11/22 03:35:10;;;;;;;12.02;7.38;;;;;;;;;;2089635;28;20393;-77
2022/11/22 03:36:29;;;;;;;9.50;6.90;;;;;;;;;;2089747;28;20041;-77
2022/11/22 03:37:48;;;;;;;7.95;6.97;;;;;;;;;;2080170;28;20021;-79
2022/11/22 03:39:07;;;;;;;9.95;7.32;;;;;;;;;;2084542;28;20041;-76
2022/11/22 03:40:26;;;;;;;10.15;7.70;;;;;;;;;;2080483;28;20486;-77
2022/11/22 03:41:44;;;;;;;9.07;7.13;;;;;;;;;;2080375;28;20065;-77
2022/11/22 03:43:03;;;;;;;9.23;7.50;;;;;;;;;;2076208;28;20025;-77
2022/11/22 03:44:23;;;;;;;9.70;7.30;;;;;;;;;;2072332;28;20034;-78
2022/11/22 03:45:45;;;;;;;11.35;7.78;;;;;;;;;;2084490;28;20049;-76
2022/11/22 03:47:04;;;;;;;10.77;7.38;;;;;;;;;;2080067;28;20026;-77
2022/11/22 03:48:23;;;;;;;12.13;8.07;;;;;;;;;;2076460;28;20524;-78
2022/11/22 03:49:42;;;;;;;12.05;7.70;;;;;;;;;;2085820;28;20576;-78
2022/11/22 03:51:04;;;;;;;10.02;6.93;;;;;;;;;;2081210;28;20037;-80
2022/11/22 03:52:23;;;;;;;8.93;6.78;;;;;;;;;;2078729;28;20188;-76
2022/11/22 03:53:42;;;;;;;9.48;7.13;;;;;;;;;;2076669;28;20021;-77
2022/11/22 03:55:01;;;;;;;8.98;7.00;;;;;;;;;;2077299;28;20033;-76
2022/11/22 03:56:21;;;;;;;10.13;7.13;;;;;;;;;;2083264;28;20037;-76
2022/11/22 03:57:40;;;;;;;9.43;6.55;;;;;;;;;;2089883;28;20021;-76
2022/11/22 03:58:59;;;;;;;9.55;7.47;;;;;;;;;;2086917;28;20033;-76
2022/11/22 04:00:18;;;;;;;9.07;6.75;;;;;;;;;;2088722;28;20033;-77
2022/11/22 04:01:37;;;;;;;8.23;6.55;;;;;;;;;;2081060;28;20410;-77
2022/11/22 04:02:56;;;;;;;10.48;7.60;;;;;;;;;;2087118;28;20108;-77
2022/11/22 04:04:15;;;;;;;8.65;7.25;;;;;;;;;;2079675;28;20030;-77
2022/11/22 04:05:34;;;;;;;8.48;6.00;;;;;;;;;;2078476;28;20025;-76
2022/11/22 04:06:53;;;;;;;6.78;6.05;;;;;;;;;;2076953;28;20116;-76
2022/11/22 04:08:12;;;;;;;7.28;6.47;;;;;;;;;;2078518;28;20112;-76
2022/11/22 04:09:31;;;;;;;7.97;6.65;;;;;;;;;;2084741;28;20486;-77
2022/11/22 04:10:50;;;;;;;10.02;6.47;;;;;;;;;;2080135;28;20018;-77
2022/11/22 04:12:09;;;;;;;7.32;6.25;;;;;;;;;;2085389;28;20029;-79
2022/11/22 04:15:06;;;;;;;7.75;6.25;;;;;;;;;;2087377;28;20033;-78
2022/11/22 04:16:25;;;;;;;6.75;6.03;;;;;;;;;;2089519;28;20386;-76
2022/11/22 04:17:44;;;;;;;7.05;6.35;;;;;;;;;;2087861;28;20443;-77
2022/11/22 04:19:03;;;;;;;8.23;5.78;;;;;;;;;;2079970;28;20033;-76
2022/11/22 04:22:01;;;;;;;7.30;6.15;;;;;;;;;;2088658;28;20100;-78
2022/11/22 04:23:20;;;;;;;7.97;6.10;;;;;;;;;;2090273;28;20033;-77
2022/11/22 04:26:17;;;;;;;7.57;5.60;;;;;;;;;;2088584;28;20459;-76
2022/11/22 04:27:36;;;;;;;8.52;6.95;;;;;;;;;;2079136;28;20030;-77
2022/11/22 04:28:55;;;;;;;6.88;6.18;;;;;;;;;;2076281;28;20486;-77
2022/11/22 04:30:14;;;;;;;8.30;6.03;;;;;;;;;;2069695;28;20498;-76
2022/11/22 04:33:11;;;;;;;7.75;6.07;;;;;;;;;;2088290;28;20029;-77
2022/11/22 04:34:30;;;;;;;7.80;6.15;;;;;;;;;;2089348;28;20021;-78
2022/11/22 04:35:50;;;;;;;6.45;5.53;;;;;;;;;;2079690;28;20529;-77
2022/11/22 04:37:08;;;;;;;6.70;5.90;;;;;;;;;;2071010;28;20447;-77
2022/11/22 04:38:27;;;;;;;9.02;6.53;;;;;;;;;;2084898;28;20025;-76
2022/11/22 04:39:46;;;;;;;6.90;6.28;;;;;;;;;;2088706;28;20518;-77
2022/11/22 04:41:05;;;;;;;8.32;6.75;;;;;;;;;;2089130;28;20024;-77
2022/11/22 04:45:40;;;;;;;8.40;5.88;;;;;;;;;;2086926;28;20029;-77
2022/11/22 04:46:59;;;;;;;7.22;6.53;;;;;;;;;;2089233;28;20409;-77
2022/11/22 04:48:18;;;;;;;8.18;6.15;;;;;;;;;;2079651;28;20022;-77
2022/11/22 04:49:37;;;;;;;7.35;5.97;;;;;;;;;;2075407;28;20044;-78
2022/11/22 04:52:52;;;;;;;6.53;5.80;;;;;;;;;;2088787;28;20021;-77
2022/11/22 04:54:11;;;;;;;6.65;5.95;;;;;;;;;;2079086;28;20513;-78
2022/11/22 04:55:30;;;;;;;9.02;6.60;;;;;;;;;;2077281;28;20449;-77
2022/11/22 04:56:49;;;;;;;7.93;6.47;;;;;;;;;;2076082;28;20501;-77
2022/11/22 04:58:08;;;;;;;7.80;6.30;;;;;;;;;;2085259;28;20032;-77
2022/11/22 04:59:27;;;;;;;6.85;6.18;;;;;;;;;;2086798;28;20045;-77
2022/11/22 05:00:46;;;;;;;15.93;6.53;;;;;;;;;;2086361;28;20083;-77
2022/11/22 05:02:06;;;;;;;8.43;6.47;;;;;;;;;;2079983;28;20510;-77
2022/11/22 05:03:25;;;;;;;10.38;7.00;;;;;;;;;;2084899;28;20401;-77
2022/11/22 05:04:44;;;;;;;10.05;7.07;;;;;;;;;;2079294;28;20029;-78
2022/11/22 05:06:03;;;;;;;12.20;8.10;;;;;;;;;;2076778;28;20026;-78
2022/11/22 05:07:25;;;;;;;10.98;8.13;;;;;;;;;;2085747;28;20099;-78
2022/11/22 05:08:44;;;;;;;9.40;7.00;;;;;;;;;;2083275;28;20065;-78
2022/11/22 05:10:04;;;;;;;9.90;7.22;;;;;;;;;;2088593;28;20267;-79
2022/11/22 05:11:22;;;;;;;8.18;7.05;;;;;;;;;;2082043;28;20022;-78
2022/11/22 05:12:41;;;;;;;8.63;7.00;;;;;;;;;;2079863;28;20509;-78
2022/11/22 05:14:00;;;;;;;13.88;7.78;;;;;;;;;;2072583;28;20066;-78
2022/11/22 05:15:23;;;;;;;9.05;6.55;;;;;;;;;;2078982;28;20037;-79
2022/11/22 05:16:42;;;;;;;9.18;6.15;;;;;;;;;;2088677;28;20028;-78
2022/11/22 05:18:01;;;;;;;8.88;6.95;;;;;;;;;;2083449;28;20061;-79
2022/11/22 05:19:19;;;;;;;9.63;7.00;;;;;;;;;;2088008;28;20025;-78
2022/11/22 05:20:38;;;;;;;10.85;6.97;;;;;;;;;;2082336;28;20041;-78
2022/11/22 05:21:57;;;;;;;10.45;7.13;;;;;;;;;;2079522;28;20026;-78
2022/11/22 05:24:54;;;;;;;25.83;13.77;;;;;;;;;;2089713;28;20523;-78
2022/11/22 05:26:13;;;;;;;8.18;6.78;;;;;;;;;;2090407;28;20025;-77
2022/11/22 05:27:32;;;;;;;9.48;6.65;;;;;;;;;;2090700;28;20041;-78
2022/11/22 05:28:51;;;;;;;11.48;7.75;;;;;;;;;;2091591;28;20036;-78
2022/11/22 05:30:10;;;;;;;8.75;6.70;;;;;;;;;;2081418;28;20029;-79
2022/11/22 05:31:29;;;;;;;42.13;23.35;;;;;;;;;;2079780;28;20026;-76
2022/11/22 05:32:48;;;;;;;12.38;8.85;;;;;;;;;;2086349;28;20025;-77
2022/11/22 05:34:07;;;;;;;11.45;8.18;;;;;;;;;;2083629;28;20029;-77
2022/11/22 05:35:26;;;;;;;9.02;6.93;;;;;;;;;;2077272;28;20974;-76
2022/11/22 05:36:45;;;;;;;8.68;6.53;;;;;;;;;;2079840;28;20033;-77
2022/11/22 05:38:04;;;;;;;8.60;7.43;;;;;;;;;;2079173;28;20026;-76
2022/11/22 05:39:23;;;;;;;9.45;7.38;;;;;;;;;;2077085;28;20080;-77
2022/11/22 05:40:42;;;;;;;7.95;7.00;;;;;;;;;;2079019;28;20066;-77
2022/11/22 05:42:00;;;;;;;7.70;6.75;;;;;;;;;;2079603;28;20442;-77
2022/11/22 05:43:20;;;;;;;8.02;6.57;;;;;;;;;;2085536;28;20044;-77
2022/11/22 05:44:43;;;;;;;8.00;6.70;;;;;;;;;;2088334;28;20029;-81
2022/11/22 05:46:02;;;;;;;;;;;;;;;;;;2092186;28;20056;-80
2022/11/22 05:47:24;;;;;;;10.00;7.22;;;;;;;;;;2091104;28;19956;-81
2022/11/22 05:48:44;;;;;;;10.90;7.20;;;;;;;;;;2090517;28;20029;-79
2022/11/22 05:50:03;;;;;;;9.68;7.97;;;;;;;;;;2082168;28;20093;-79
2022/11/22 05:51:24;;;;;;;10.63;8.02;;;;;;;;;;2087155;28;20060;-79
2022/11/22 05:52:43;;;;;;;8.57;7.10;;;;;;;;;;2084913;28;20025;-80
2022/11/22 05:54:02;;;;;;;10.60;7.57;;;;;;;;;;2079793;28;20025;-80
2022/11/22 05:55:24;;;;;;;9.55;7.22;;;;;;;;;;2075504;28;20037;-78
2022/11/22 05:56:43;;;;;;;8.63;7.00;;;;;;;;;;2079068;28;20033;-81
2022/11/22 05:58:02;;;;;;;9.82;7.72;;;;;;;;;;2078428;28;20498;-79
2022/11/22 05:59:27;;;;;;;8.90;7.38;;;;;;;;;;2086202;28;20434;-80
2022/11/22 06:00:51;;;;;;;8.95;7.78;;;;;;;;;;2088861;28;20040;-81
2022/11/22 06:02:11;;;;;;;12.45;8.40;;;;;;;;;;2083261;28;20030;-78
2022/11/22 06:03:32;;;;;;;9.35;7.22;;;;;;;;;;2077918;28;20029;-78
2022/11/22 06:04:51;;;;;;;8.45;7.45;;;;;;;;;;2080310;28;20022;-78
2022/11/22 06:06:11;;;;;;;9.40;7.45;;;;;;;;;;2085380;28;20061;-79
2022/11/22 06:07:32;;;;;;;11.88;7.63;;;;;;;;;;2090725;28;20029;-79
2022/11/22 06:08:51;;;;;;;10.88;7.35;;;;;;;;;;2090956;28;20025;-79
2022/11/22 06:10:11;;;;;;;19.05;12.27;;;;;;;;;;2091264;28;20021;-79
2022/11/22 06:11:33;;;;;;;15.55;9.73;;;;;;;;;;2087332;28;20029;-79
2022/11/22 06:12:55;;;;;;;16.45;10.85;;;;;;;;;;2081459;28;20811;-79
2022/11/22 06:14:14;;;;;;;10.70;8.23;;;;;;;;;;2087143;28;20413;-79
2022/11/22 06:15:36;;;;;;;11.25;7.90;;;;;;;;;;2082564;28;20437;-78
2022/11/22 06:16:55;;;;;;;15.30;9.82;;;;;;;;;;2079119;28;20583;-78
2022/11/22 06:18:14;;;;;;;11.00;8.27;;;;;;;;;;2086098;28;20104;-78
2022/11/22 06:19:39;;;;;;;11.40;7.80;;;;;;;;;;2088245;28;20060;-79
2022/11/22 06:21:03;;;;;;;11.02;7.22;;;;;;;;;;2091306;28;20013;-78
2022/11/22 06:22:22;;;;;;;14.02;9.52;;;;;;;;;;2081799;28;20041;-78
2022/11/22 06:23:43;;;;;;;13.57;9.57;;;;;;;;;;2086910;28;20033;-77
2022/11/22 06:25:08;;;;;;;10.15;7.25;;;;;;;;;;2081421;28;20025;-79
2022/11/22 06:26:50;;;;;;;12.38;7.70;;;;;;;;;;2076474;28;20041;-78
2022/11/22 06:28:12;;;;;;;10.27;7.57;;;;;;;;;;2086648;28;20255;-78
2022/11/22 06:29:31;;;;;;;10.02;7.30;;;;;;;;;;2080529;28;20037;-78
2022/11/22 06:30:50;;;;;;;8.45;7.57;;;;;;;;;;2084392;28;20030;-78
2022/11/22 06:32:10;;;;;;;10.40;7.85;;;;;;;;;;2080356;28;20097;-79
2022/11/22 06:33:32;;;;;;;10.88;8.27;;;;;;;;;;2083254;28;20041;-78
2022/11/22 06:34:51;;;;;;;11.68;7.85;;;;;;;;;;2080796;28;20033;-78
2022/11/22 06:36:29;;;;;;;12.75;7.93;;;;;;;;;;2077523;28;20033;-78
2022/11/22 06:37:51;;;;;;;9.23;7.20;;;;;;;;;;2081061;28;20476;-78
2022/11/22 06:39:11;;;;;;;10.60;7.35;;;;;;;;;;2087810;28;20093;-79
2022/11/22 06:40:29;;;;;;;11.35;7.90;;;;;;;;;;2081853;28;20120;-78
2022/11/22 06:41:48;;;;;;;12.98;7.63;;;;;;;;;;2087333;28;20072;-79
2022/11/22 06:43:07;;;;;;;13.25;8.18;;;;;;;;;;2081749;28;20026;-80
2022/11/22 06:44:26;;;;;;;8.98;7.55;;;;;;;;;;2087271;28;20033;-79
2022/11/22 06:45:45;;;;;;;11.55;7.97;;;;;;;;;;2081043;28;20037;-79
2022/11/22 06:47:04;;;;;;;8.88;7.45;;;;;;;;;;2086840;28;20413;-79
2022/11/22 06:48:23;;;;;;;10.52;7.25;;;;;;;;;;2081353;28;20025;-79
2022/11/22 06:49:43;;;;;;;12.07;8.20;;;;;;;;;;2086342;28;20021;-79
2022/11/22 06:51:12;;;;;;;8.88;7.32;;;;;;;;;;2077807;28;20029;-78
2022/11/22 06:52:31;;;;;;;12.63;8.65;;;;;;;;;;2080012;28;20026;-77
2022/11/22 06:53:51;;;;;;;12.07;8.32;;;;;;;;;;2087570;28;20021;-77
2022/11/22 06:55:10;;;;;;;11.85;8.65;;;;;;;;;;2090498;28;20041;-77
2022/11/22 06:56:35;;;;;;;12.15;7.90;;;;;;;;;;2085874;28;20029;-78
2022/11/22 06:57:54;;;;;;;13.20;8.18;;;;;;;;;;2079455;28;20029;-78
2022/11/22 06:59:13;;;;;;;12.02;8.50;;;;;;;;;;2073784;28;20030;-79
2022/11/22 07:00:32;;;;;;;11.52;7.95;;;;;;;;;;2085742;28;20029;-77
2022/11/22 07:01:51;;;;;;;13.00;9.02;;;;;;;;;;2089119;28;20033;-78
2022/11/22 07:03:10;;;;;;;11.00;8.65;;;;;;;;;;2081216;28;20022;-78
2022/11/22 07:04:29;;;;;;;11.35;8.73;;;;;;;;;;2074563;28;20030;-78
2022/11/22 07:05:51;;;;;;;10.73;8.45;;;;;;;;;;2086415;28;20028;-78
2022/11/22 07:07:10;;;;;;;11.18;8.70;;;;;;;;;;2079104;28;20510;-79
2022/11/22 07:08:29;;;;;;;10.70;8.60;;;;;;;;;;2086242;28;20033;-80
2022/11/22 07:09:51;;;;;;;12.18;8.93;;;;;;;;;;2080286;28;20936;-78
2022/11/22 07:11:12;;;;;;;11.50;8.63;;;;;;;;;;2078690;28;20034;-79
2022/11/22 07:12:31;;;;;;;13.75;8.80;;;;;;;;;;2086666;28;20037;-79
2022/11/22 07:13:51;;;;;;;18.65;9.30;;;;;;;;;;2082184;28;20053;-78
2022/11/22 07:15:10;;;;;;;14.38;8.63;;;;;;;;;;2071783;28;20394;-78
2022/11/22 07:16:29;;;;;;;12.20;9.10;;;;;;;;;;2087084;28;20041;-78
2022/11/22 07:17:48;;;;;;;17.75;9.52;;;;;;;;;;2089153;28;20441;-78
2022/11/22 07:19:08;;;;;;;13.27;8.10;;;;;;;;;;2090775;28;20032;-78
2022/11/22 07:20:27;;;;;;;11.88;9.15;;;;;;;;;;2085479;28;20025;-79
2022/11/22 07:21:46;;;;;;;13.57;9.77;;;;;;;;;;2081510;28;20029;-78
2022/11/22 07:23:05;;;;;;;14.77;9.13;;;;;;;;;;2085756;28;20025;-78
2022/11/22 07:24:25;;;;;;;15.13;9.23;;;;;;;;;;2090179;28;20033;-78
2022/11/22 07:25:47;;;;;;;14.07;9.48;;;;;;;;;;2091044;28;20032;-78
2022/11/22 07:27:06;;;;;;;20.00;10.80;;;;;;;;;;2078272;28;20038;-78
2022/11/22 07:28:25;;;;;;;17.48;9.85;;;;;;;;;;2072566;28;20034;-76
2022/11/22 07:29:44;;;;;;;15.18;9.50;;;;;;;;;;2083553;28;20017;-78
2022/11/22 07:31:05;;;;;;;15.70;9.90;;;;;;;;;;2085755;28;20029;-78
2022/11/22 07:32:24;;;;;;;14.95;10.18;;;;;;;;;;2088809;28;20056;-78
2022/11/22 07:33:44;;;;;;;16.15;10.05;;;;;;;;;;2081980;28;20421;-79
2022/11/22 07:35:03;;;;;;;20.83;10.93;;;;;;;;;;2079004;28;20101;-79
2022/11/22 07:36:22;;;;;;;14.15;10.60;;;;;;;;;;2076829;28;20029;-78
2022/11/22 07:37:41;;;;;;;16.15;10.15;;;;;;;;;;2076746;28;20502;-79
2022/11/22 07:39:01;;;;;;;20.20;11.32;;;;;;;;;;2087469;28;20033;-78
2022/11/22 07:40:20;;;;;;;18.20;10.55;;;;;;;;;;2077074;28;20041;-79
2022/11/22 07:41:39;;;;;;;13.27;9.88;;;;;;;;;;2077140;28;20074;-79
2022/11/22 07:42:58;;;;;;;15.25;11.07;;;;;;;;;;2077689;28;20065;-79
2022/11/22 07:44:17;;;;;;;16.15;10.45;;;;;;;;;;2085956;28;20095;-78
2022/11/22 07:45:36;;;;;;;16.23;10.88;;;;;;;;;;2071483;28;20109;-79
2022/11/22 07:46:55;;;;;;;15.82;10.60;;;;;;;;;;2077528;28;20045;-78
2022/11/22 07:48:14;;;;;;;19.00;10.93;;;;;;;;;;2085557;28;20040;-78
2022/11/22 07:49:33;;;;;;;18.10;11.25;;;;;;;;;;2079863;28;20049;-78
2022/11/22 07:50:51;;;;;;;18.88;11.40;;;;;;;;;;2081835;28;20121;-78
2022/11/22 07:52:10;;;;;;;18.33;10.90;;;;;;;;;;2081415;28;20032;-79
2022/11/22 07:53:29;;;;;;;17.25;11.13;;;;;;;;;;2077911;28;20037;-79
2022/11/22 07:54:48;;;;;;;17.45;10.88;;;;;;;;;;2076999;28;20025;-78
2022/11/22 07:56:07;;;;;;;19.40;11.73;;;;;;;;;;2085414;28;20100;-78
2022/11/22 07:57:26;;;;;;;20.50;11.52;;;;;;;;;;2081287;28;20506;-78
2022/11/22 07:58:46;;;;;;;21.38;11.93;;;;;;;;;;2077564;28;20025;-78
2022/11/22 08:00:05;;;;;;;17.38;11.23;;;;;;;;;;2077610;28;20034;-78
2022/11/22 08:01:24;;;;;;;14.70;10.73;;;;;;;;;;2077323;28;20030;-78
2022/11/22 08:02:43;;;;;;;20.77;12.98;;;;;;;;;;2080687;28;20518;-78
2022/11/22 08:04:02;;;;;;;20.55;11.68;;;;;;;;;;2078995;28;20026;-79
2022/11/22 08:05:21;;;;;;;20.65;11.77;;;;;;;;;;2083407;28;20025;-79
2022/11/22 08:06:40;;;;;;;20.52;13.90;;;;;;;;;;2088482;28;22733;-79
2022/11/22 08:07:59;;;;;;;20.83;11.98;;;;;;;;;;2080889;28;20037;-78
2022/11/22 08:09:18;;;;;;;22.63;14.50;;;;;;;;;;2084519;28;20033;-78